Time;durP1;ratioP1;P1;durP2;ratioP2;P2;SDS_P1;SDS_P2;PMS_P1;PMS_P2;Temp;Humidity;BMP_temperature;BMP_pressure;BME280_temperature;BME280_humidity;BME280_pressure;Samples;Min_cycle;Max_cycle;Signal;HPM_P1;HPM_P2
2022/08/18 00:02:14;;;;;;;;;;;30.30;89.40;;;;;;5106326;28;19912;-53
2022/08/18 00:04:41;;;;;;;;;;;30.30;89.60;;;;;;5106565;28;20230;-51
2022/08/18 00:07:08;;;;;;;;;;;30.20;89.70;;;;;;5106421;28;19904;-57
2022/08/18 00:09:35;;;;;;;;;;;30.20;90.00;;;;;;5106152;28;19912;-57
2022/08/18 00:12:03;;;;;;;;;;;30.20;89.80;;;;;;5106284;28;19908;-53
2022/08/18 00:14:30;;;;;;;;;;;30.10;90.00;;;;;;5106292;28;19947;-53
2022/08/18 00:16:56;;;;;;;;;;;30.10;90.10;;;;;;5106160;28;19908;-59
2022/08/18 00:19:23;;;;;;;;;;;30.10;90.10;;;;;;5106279;28;19909;-58
2022/08/18 00:21:49;;;;;;;;;;;30.10;90.10;;;;;;5106268;28;19908;-58
2022/08/18 00:24:15;;;;;;;;;;;30.00;90.10;;;;;;5106065;28;19913;-57
2022/08/18 00:26:41;;;;;;;;;;;30.00;90.20;;;;;;5106073;28;19931;-55
2022/08/18 00:29:07;;;;;;;;;;;30.00;90.20;;;;;;5105981;28;19955;-58
2022/08/18 00:31:34;;;;;;;;;;;30.00;90.10;;;;;;5105893;28;20162;-53
2022/08/18 00:34:00;;;;;;;;;;;30.00;90.00;;;;;;5105800;28;19930;-52
2022/08/18 00:36:26;;;;;;;;;;;29.90;89.80;;;;;;5104638;28;19908;-55
2022/08/18 00:38:52;;;;;;;;;;;30.00;89.90;;;;;;5105835;28;20331;-58
2022/08/18 00:41:19;;;;;;;;;;;29.90;89.70;;;;;;5105595;28;20167;-57
2022/08/18 00:43:47;;;;;;;;;;;29.90;89.80;;;;;;5104875;28;19910;-56
2022/08/18 00:46:22;;;;;;;;;;;29.90;89.60;;;;;;5105657;28;19931;-52
2022/08/18 00:48:48;;;;;;;;;;;29.90;89.40;;;;;;5105534;28;19908;-56
2022/08/18 00:51:28;;;;;;;;;;;29.90;89.50;;;;;;5105560;28;19954;-54
2022/08/18 00:54:15;;;;;;;;;;;29.90;89.40;;;;;;5101081;28;19908;-50
2022/08/18 00:56:47;;;;;;;;;;;29.90;89.30;;;;;;5102296;28;20219;-49
2022/08/18 00:59:16;;;;;;;;;;;29.80;89.50;;;;;;5089865;28;19912;-51
2022/08/18 01:01:44;;;;;;;;;;;29.80;89.50;;;;;;5085018;28;19908;-54
2022/08/18 01:04:24;;;;;;;;;;;29.60;89.70;;;;;;5092602;28;19919;-49
2022/08/18 01:06:56;;;;;;;;;;;29.50;89.90;;;;;;5096967;28;19915;-49
2022/08/18 01:09:22;;;;;;;;;;;29.40;90.00;;;;;;5105290;28;20004;-55
2022/08/18 01:11:50;;;;;;;;;;;29.40;90.20;;;;;;5102813;28;20192;-52
2022/08/18 01:14:17;;;;;;;;;;;29.30;90.10;;;;;;5100711;28;19950;-50
2022/08/18 01:22:21;;;;;;;;;;;29.10;90.20;;;;;;5090661;28;20115;-51
2022/08/18 01:27:34;;;;;;;;;;;29.10;90.20;;;;;;5105256;28;20098;-50
2022/08/18 01:30:09;;;;;;;;;;;29.00;90.00;;;;;;5105112;28;19912;-51
2022/08/18 01:32:37;;;;;;;;;;;29.00;90.00;;;;;;5105167;28;19929;-51
2022/08/18 01:35:10;;;;;;;;;;;29.10;90.00;;;;;;5103694;28;19942;-56
2022/08/18 01:37:36;;;;;;;;;;;29.10;90.00;;;;;;5104949;28;20142;-50
2022/08/18 01:40:06;;;;;;;;;;;29.10;90.00;;;;;;5103615;28;19916;-58
2022/08/18 01:42:32;;;;;;;;;;;29.10;89.90;;;;;;5104816;28;19944;-49
2022/08/18 01:44:59;;;;;;;;;;;29.10;89.90;;;;;;5105104;28;19912;-52
2022/08/18 01:47:27;;;;;;;;;;;29.10;90.00;;;;;;5104624;28;20253;-51
2022/08/18 01:49:53;;;;;;;;;;;29.00;89.80;;;;;;5104532;28;20126;-54
2022/08/18 01:52:20;;;;;;;;;;;28.90;89.80;;;;;;5104708;28;19908;-48
2022/08/18 01:54:47;;;;;;;;;;;28.90;89.50;;;;;;5104609;28;20206;-53
2022/08/18 01:57:14;;;;;;;;;;;28.80;89.70;;;;;;5104671;28;19908;-53
2022/08/18 01:59:41;;;;;;;;;;;28.80;89.70;;;;;;5104775;28;19916;-52
2022/08/18 02:02:08;;;;;;;;;;;28.80;90.00;;;;;;5104410;28;20134;-50
2022/08/18 02:04:35;;;;;;;;;;;28.80;89.90;;;;;;5104502;28;19983;-56
2022/08/18 02:07:02;;;;;;;;;;;28.80;89.80;;;;;;5104602;28;19911;-55
2022/08/18 02:09:28;;;;;;;;;;;28.70;89.90;;;;;;5104470;28;19912;-54
2022/08/18 02:11:55;;;;;;;;;;;28.70;90.10;;;;;;5104473;28;19957;-53
2022/08/18 02:14:21;;;;;;;;;;;28.70;90.00;;;;;;5104610;28;19919;-51
2022/08/18 02:16:47;;;;;;;;;;;28.70;90.00;;;;;;5104467;28;19997;-50
2022/08/18 02:19:13;;;;;;;;;;;28.60;90.00;;;;;;5104028;28;19916;-48
2022/08/18 02:21:40;;;;;;;;;;;28.60;90.10;;;;;;5095082;28;19909;-58
2022/08/18 02:24:07;;;;;;;;;;;28.50;90.00;;;;;;5101206;28;20136;-54
2022/08/18 02:26:34;;;;;;;;;;;28.50;90.10;;;;;;5104151;28;19908;-52
2022/08/18 02:29:00;;;;;;;;;;;28.50;90.10;;;;;;5104218;28;20196;-50
2022/08/18 02:31:27;;;;;;;;;;;28.50;90.10;;;;;;5104343;28;20187;-55
2022/08/18 02:33:53;;;;;;;;;;;28.40;90.00;;;;;;5103672;28;19908;-51
2022/08/18 02:36:20;;;;;;;;;;;28.40;90.10;;;;;;5104368;28;19959;-53
2022/08/18 02:38:46;;;;;;;;;;;28.40;90.00;;;;;;5104268;28;20295;-53
2022/08/18 02:41:13;;;;;;;;;;;28.40;89.80;;;;;;5104032;28;19916;-54
2022/08/18 02:43:40;;;;;;;;;;;28.40;89.70;;;;;;5104231;28;19912;-54
2022/08/18 02:46:07;;;;;;;;;;;28.40;89.50;;;;;;5104742;28;19916;-52
2022/08/18 02:48:36;;;;;;;;;;;28.40;89.30;;;;;;5103612;28;20200;-54
2022/08/18 02:51:07;;;;;;;;;;;28.40;89.40;;;;;;5104565;28;20290;-53
2022/08/18 02:53:34;;;;;;;;;;;28.40;89.30;;;;;;5104271;28;20046;-52
2022/08/18 02:56:23;;;;;;;;;;;28.40;89.20;;;;;;5104598;28;19987;-52
2022/08/18 02:58:57;;;;;;;;;;;28.30;89.00;;;;;;5093232;28;19949;-51
2022/08/18 03:01:28;;;;;;;;;;;28.30;89.10;;;;;;5103987;28;19965;-50
2022/08/18 03:03:55;;;;;;;;;;;28.20;88.70;;;;;;5103674;28;20192;-53
2022/08/18 03:06:22;;;;;;;;;;;28.30;88.70;;;;;;5103957;28;19954;-51
2022/08/18 03:08:49;;;;;;;;;;;28.20;87.90;;;;;;5107172;28;19911;-50
2022/08/18 03:11:16;;;;;;;;;;;28.20;87.70;;;;;;5107706;28;20215;-52
2022/08/18 03:13:43;;;;;;;;;;;28.20;87.70;;;;;;5107539;28;19943;-53
2022/08/18 03:16:09;;;;;;;;;;;28.20;87.70;;;;;;5108294;28;19947;-55
2022/08/18 03:18:36;;;;;;;;;;;28.20;87.40;;;;;;5107288;28;19908;-49
2022/08/18 03:21:10;;;;;;;;;;;28.20;87.30;;;;;;5107817;28;19912;-49
2022/08/18 03:23:39;;;;;;;;;;;28.30;87.80;;;;;;5098599;28;20157;-55
2022/08/18 03:26:10;;;;;;;;;;;28.30;88.10;;;;;;5089010;28;20142;-54
2022/08/18 03:28:40;;;;;;;;;;;28.30;87.90;;;;;;5107307;28;19908;-55
2022/08/18 03:31:07;;;;;;;;;;;28.30;87.90;;;;;;5102044;28;19920;-57
2022/08/18 03:33:33;;;;;;;;;;;28.40;87.70;;;;;;5094729;28;19908;-57
2022/08/18 03:36:08;;;;;;;;;;;28.40;87.20;;;;;;5087760;28;19912;-56
2022/08/18 03:38:34;;;;;;;;;;;28.40;86.70;;;;;;5097880;28;19908;-54
2022/08/18 03:41:00;;;;;;;;;;;28.40;86.40;;;;;;5087121;28;19913;-56
2022/08/18 03:43:26;;;;;;;;;;;28.50;86.30;;;;;;5086800;28;20018;-54
2022/08/18 03:45:53;;;;;;;;;;;28.50;85.80;;;;;;5086661;28;19912;-55
2022/08/18 03:48:20;;;;;;;;;;;28.50;85.20;;;;;;5097739;28;19908;-55
2022/08/18 03:50:47;;;;;;;;;;;28.50;84.80;;;;;;5087008;28;19950;-55
2022/08/18 03:53:14;;;;;;;;;;;28.50;84.60;;;;;;5085473;28;19948;-55
2022/08/18 03:55:40;;;;;;;;;;;28.50;84.20;;;;;;5085843;28;20192;-60
2022/08/18 03:58:07;;;;;;;;;;;28.50;83.80;;;;;;5085481;28;19958;-56
2022/08/18 04:00:37;;;;;;;;;;;28.50;83.60;;;;;;5086182;28;19920;-56
2022/08/18 04:03:03;;;;;;;;;;;28.50;83.50;;;;;;5084870;28;20228;-58
2022/08/18 04:05:29;;;;;;;;;;;28.50;83.10;;;;;;5086892;28;19912;-58
2022/08/18 04:07:56;;;;;;;;;;;28.50;82.90;;;;;;5085723;28;19908;-59
2022/08/18 04:10:24;;;;;;;;;;;28.50;82.50;;;;;;5084490;28;19920;-59
2022/08/18 04:12:51;;;;;;;;;;;28.50;82.50;;;;;;5084537;28;20312;-60
2022/08/18 04:15:17;;;;;;;;;;;28.40;82.10;;;;;;5084840;28;20003;-57
2022/08/18 04:17:45;;;;;;;;;;;28.40;81.90;;;;;;5084475;28;19904;-58
2022/08/18 04:20:11;;;;;;;;;;;28.40;81.40;;;;;;5084486;28;20298;-58
2022/08/18 04:22:38;;;;;;;;;;;28.40;81.00;;;;;;5084242;28;19946;-57
2022/08/18 04:25:04;;;;;;;;;;;28.40;80.80;;;;;;5084454;28;20208;-58
2022/08/18 04:27:30;;;;;;;;;;;28.50;80.70;;;;;;5084116;28;20195;-58
2022/08/18 04:29:58;;;;;;;;;;;28.40;80.70;;;;;;5084356;28;19932;-57
2022/08/18 04:32:24;;;;;;;;;;;28.40;80.20;;;;;;5084113;28;19908;-56
2022/08/18 04:34:51;;;;;;;;;;;28.40;80.40;;;;;;5084144;28;20096;-57
2022/08/18 04:37:17;;;;;;;;;;;28.40;80.40;;;;;;5097602;28;19908;-59
2022/08/18 04:39:44;;;;;;;;;;;28.40;80.40;;;;;;5105699;28;19916;-54
2022/08/18 04:42:10;;;;;;;;;;;28.30;80.30;;;;;;5105677;28;20239;-55
2022/08/18 04:44:37;;;;;;;;;;;28.40;79.90;;;;;;5105790;28;19912;-55
2022/08/18 04:47:03;;;;;;;;;;;28.30;79.90;;;;;;5105775;28;20131;-56
2022/08/18 04:49:30;;;;;;;;;;;28.30;79.70;;;;;;5105706;28;19950;-58
2022/08/18 04:54:42;;;;;;;;;;;28.30;79.20;;;;;;5105692;28;19957;-56
2022/08/18 04:57:12;;;;;;;;;;;28.30;78.60;;;;;;5105510;28;19968;-56
2022/08/18 04:59:40;;;;;;;;;;;28.30;78.60;;;;;;5105606;28;19958;-60
2022/08/18 05:02:07;;;;;;;;;;;28.30;78.10;;;;;;5105237;28;19942;-54
2022/08/18 05:04:36;;;;;;;;;;;28.30;78.10;;;;;;5105459;28;19912;-54
2022/08/18 05:07:03;;;;;;;;;;;28.30;77.90;;;;;;5105313;28;19915;-55
2022/08/18 05:09:30;;;;;;;;;;;28.30;77.70;;;;;;5105376;28;19916;-54
2022/08/18 05:11:56;;;;;;;;;;;28.30;77.60;;;;;;5104392;28;20203;-54
2022/08/18 05:14:23;;;;;;;;;;;28.30;77.30;;;;;;5105347;28;19919;-55
2022/08/18 05:16:50;;;;;;;;;;;28.30;77.20;;;;;;5105088;28;19911;-54
2022/08/18 05:19:20;;;;;;;;;;;28.20;77.30;;;;;;5105047;28;19912;-55
2022/08/18 05:21:47;;;;;;;;;;;28.20;77.00;;;;;;5105201;28;19948;-56
2022/08/18 05:24:13;;;;;;;;;;;28.20;76.80;;;;;;5105007;28;19948;-55
2022/08/18 05:26:40;;;;;;;;;;;28.20;77.00;;;;;;5105225;28;20196;-56
2022/08/18 05:29:07;;;;;;;;;;;28.10;77.00;;;;;;5104901;28;19904;-56
2022/08/18 05:31:33;;;;;;;;;;;28.10;77.00;;;;;;5104427;28;19908;-56
2022/08/18 05:34:03;;;;;;;;;;;28.20;76.80;;;;;;5104926;28;20188;-57
2022/08/18 05:36:47;;;;;;;;;;;28.10;76.60;;;;;;5103886;28;19908;-55
2022/08/18 05:39:37;;;;;;;;;;;28.10;76.30;;;;;;5105129;28;20049;-59
2022/08/18 05:42:09;;;;;;;;;;;28.10;76.30;;;;;;5104795;28;19965;-54
2022/08/18 05:44:40;;;;;;;;;;;28.10;76.20;;;;;;5105138;28;20166;-56
2022/08/18 05:47:13;;;;;;;;;;;28.10;76.00;;;;;;5104903;28;19908;-55
2022/08/18 05:49:42;;;;;;;;;;;28.10;76.10;;;;;;5105247;28;19919;-60
2022/08/18 05:52:28;;;;;;;;;;;28.10;75.90;;;;;;5104614;28;19947;-52
2022/08/18 05:57:55;;;;;;;;;;;28.00;75.90;;;;;;5104581;28;19951;-55
2022/08/18 06:00:23;;;;;;;;;;;28.00;76.10;;;;;;5104727;28;19993;-55
2022/08/18 06:02:56;;;;;;;;;;;28.00;76.30;;;;;;5104736;28;20014;-57
2022/08/18 06:05:29;;;;;;;;;;;28.00;76.50;;;;;;5104774;28;19912;-54
2022/08/18 06:07:55;;;;;;;;;;;27.90;76.80;;;;;;5104642;28;19952;-56
2022/08/18 06:10:22;;;;;;;;;;;27.90;77.00;;;;;;5105048;28;20196;-54
2022/08/18 06:12:50;;;;;;;;;;;27.90;77.50;;;;;;5104300;28;19990;-55
2022/08/18 06:15:24;;;;;;;;;;;27.90;78.20;;;;;;5104653;28;19912;-55
2022/08/18 06:17:50;;;;;;;;;;;27.90;78.00;;;;;;5104423;28;19908;-56
2022/08/18 06:20:22;;;;;;;;;;;27.90;78.20;;;;;;5104862;28;19955;-53
2022/08/18 06:23:05;;;;;;;;;;;27.90;78.40;;;;;;5104448;28;19910;-53
2022/08/18 06:25:34;;;;;;;;;;;27.80;78.30;;;;;;5104795;28;19920;-56
2022/08/18 06:28:06;;;;;;;;;;;27.80;78.70;;;;;;5104390;28;20191;-53
2022/08/18 06:30:41;;;;;;;;;;;27.70;78.90;;;;;;5104565;28;20196;-55
2022/08/18 06:33:10;;;;;;;;;;;27.70;79.10;;;;;;5104413;28;19908;-58
2022/08/18 06:35:36;;;;;;;;;;;27.80;79.30;;;;;;5104636;28;19918;-54
2022/08/18 06:40:47;;;;;;;;;;;27.80;79.50;;;;;;5104584;28;19953;-54
2022/08/18 06:43:15;;;;;;;;;;;27.70;79.50;;;;;;5106601;28;20215;-56
2022/08/18 06:45:44;;;;;;;;;;;27.70;79.70;;;;;;5108539;28;20184;-54
2022/08/18 06:48:16;;;;;;;;;;;27.70;79.80;;;;;;5108098;28;19908;-56
2022/08/18 06:50:49;;;;;;;;;;;27.70;79.80;;;;;;5108374;28;19919;-56
2022/08/18 06:53:15;;;;;;;;;;;27.70;79.70;;;;;;5107645;28;19930;-58
2022/08/18 06:55:43;;;;;;;;;;;27.70;79.60;;;;;;5108352;28;19954;-60
2022/08/18 06:58:15;;;;;;;;;;;27.70;79.50;;;;;;5107913;28;19963;-56
2022/08/18 07:00:42;;;;;;;;;;;27.70;79.50;;;;;;5108127;28;19918;-57
2022/08/18 07:03:13;;;;;;;;;;;27.60;79.50;;;;;;5108036;28;19908;-56
2022/08/18 07:05:58;;;;;;;;;;;27.60;79.80;;;;;;5108189;28;19916;-53
2022/08/18 07:08:24;;;;;;;;;;;27.60;79.80;;;;;;5107905;28;19991;-54
2022/08/18 07:10:51;;;;;;;;;;;27.60;80.40;;;;;;5107631;28;20167;-60
2022/08/18 07:13:20;;;;;;;;;;;27.60;80.00;;;;;;5107614;28;19908;-55
2022/08/18 07:15:47;;;;;;;;;;;27.60;80.10;;;;;;5107318;28;19952;-54
2022/08/18 07:18:16;;;;;;;;;;;27.60;80.00;;;;;;5107460;28;20210;-54
2022/08/18 07:20:43;;;;;;;;;;;27.60;80.50;;;;;;5107845;28;19916;-56
2022/08/18 07:23:19;;;;;;;;;;;27.60;80.00;;;;;;5107280;28;19904;-61
2022/08/18 07:25:58;;;;;;;;;;;27.50;80.20;;;;;;5107616;28;20188;-55
2022/08/18 07:28:27;;;;;;;;;;;27.50;80.40;;;;;;5107374;28;19910;-55
2022/08/18 07:31:07;;;;;;;;;;;27.50;80.50;;;;;;5107838;28;20210;-54
2022/08/18 07:33:33;;;;;;;;;;;27.50;80.50;;;;;;5107376;28;19904;-54
2022/08/18 07:36:04;;;;;;;;;;;27.50;80.50;;;;;;5107513;28;19912;-54
2022/08/18 07:38:36;;;;;;;;;;;27.40;80.30;;;;;;5107047;28;20134;-54
2022/08/18 07:41:11;;;;;;;;;;;27.50;80.30;;;;;;5107288;28;19920;-54
2022/08/18 07:43:42;;;;;;;;;;;27.40;80.20;;;;;;5107185;28;19911;-56
2022/08/18 07:46:14;;;;;;;;;;;27.40;80.10;;;;;;5107831;28;19983;-59
2022/08/18 07:48:40;;;;;;;;;;;27.40;79.70;;;;;;5106920;28;19931;-53
2022/08/18 07:51:09;;;;;;;;;;;27.40;79.70;;;;;;5107493;28;19919;-55
2022/08/18 07:53:46;;;;;;;;;;;27.40;79.80;;;;;;5106388;28;19908;-57
2022/08/18 07:56:20;;;;;;;;;;;27.30;79.60;;;;;;5107114;28;19919;-57
2022/08/18 07:59:06;;;;;;;;;;;27.30;79.20;;;;;;5106792;28;20088;-56
2022/08/18 08:01:39;;;;;;;;;;;27.30;79.50;;;;;;5106210;28;19916;-54
2022/08/18 08:04:08;;;;;;;;;;;27.30;79.60;;;;;;5106549;28;20104;-57
2022/08/18 08:06:41;;;;;;;;;;;27.30;79.80;;;;;;5106945;28;19916;-55
2022/08/18 08:09:14;;;;;;;;;;;27.30;79.80;;;;;;5106991;28;20212;-53
2022/08/18 08:11:57;;;;;;;;;;;27.30;79.80;;;;;;5106725;28;20018;-54
2022/08/18 08:14:31;;;;;;;;;;;27.30;79.90;;;;;;5106502;28;19919;-54
2022/08/18 08:16:57;;;;;;;;;;;27.30;79.90;;;;;;5106298;28;19904;-58
2022/08/18 08:19:42;;;;;;;;;;;27.30;80.00;;;;;;5106258;28;19969;-54
2022/08/18 08:22:17;;;;;;;;;;;27.30;79.70;;;;;;5106348;28;19904;-54
2022/08/18 08:25:02;;;;;;;;;;;27.20;79.70;;;;;;5106819;28;20131;-53
2022/08/18 08:27:45;;;;;;;;;;;27.20;79.80;;;;;;5106046;28;19904;-55
2022/08/18 08:30:12;;;;;;;;;;;27.20;79.70;;;;;;5106676;28;19912;-53
2022/08/18 08:32:53;;;;;;;;;;;27.20;79.60;;;;;;5106210;28;19967;-56
2022/08/18 08:35:30;;;;;;;;;;;27.20;79.60;;;;;;5106602;28;20188;-55
2022/08/18 08:38:22;;;;;;;;;;;27.10;79.50;;;;;;5105799;28;19967;-54
2022/08/18 08:41:13;;;;;;;;;;;27.10;79.40;;;;;;5103514;28;19939;-57
2022/08/18 08:43:41;;;;;;;;;;;27.10;79.00;;;;;;5098286;28;19904;-56
2022/08/18 08:46:07;;;;;;;;;;;27.00;79.00;;;;;;5106300;28;19916;-53
2022/08/18 08:48:35;;;;;;;;;;;27.10;78.90;;;;;;5106196;28;19904;-54
2022/08/18 08:51:17;;;;;;;;;;;27.10;78.90;;;;;;5106363;28;19975;-54
2022/08/18 08:54:00;;;;;;;;;;;27.10;78.30;;;;;;5106004;28;19907;-55
2022/08/18 08:56:29;;;;;;;;;;;27.10;77.70;;;;;;5105696;28;19912;-56
2022/08/18 08:59:00;;;;;;;;;;;27.10;77.30;;;;;;5105405;28;20196;-56
2022/08/18 09:01:35;;;;;;;;;;;27.10;77.00;;;;;;5105859;28;19957;-55
2022/08/18 09:04:20;;;;;;;;;;;27.10;76.90;;;;;;5105516;28;20113;-57
2022/08/18 09:07:07;;;;;;;;;;;27.10;76.60;;;;;;5105158;28;20064;-61
2022/08/18 09:09:46;;;;;;;;;;;27.10;76.60;;;;;;5074336;28;19949;-54
2022/08/18 09:12:25;;;;;;;;;;;27.10;77.00;;;;;;5105430;28;20223;-59
2022/08/18 09:15:03;;;;;;;;;;;27.00;76.40;;;;;;5105275;28;19951;-55
2022/08/18 09:17:49;;;;;;;;;;;27.00;76.20;;;;;;5105124;28;20138;-56
2022/08/18 09:20:21;;;;;;;;;;;27.00;76.30;;;;;;5105363;28;19912;-54
2022/08/18 09:22:47;;;;;;;;;;;27.00;76.10;;;;;;5105406;28;19911;-54
2022/08/18 09:25:32;;;;;;;;;;;27.00;76.10;;;;;;5105242;28;19919;-56
2022/08/18 09:28:12;;;;;;;;;;;27.00;75.90;;;;;;5104975;28;19915;-56
2022/08/18 09:30:50;;;;;;;;;;;27.00;75.80;;;;;;5105254;28;19943;-59
2022/08/18 09:33:21;;;;;;;;;;;26.90;75.70;;;;;;5104881;28;19908;-55
2022/08/18 09:35:47;;;;;;;;;;;26.90;75.70;;;;;;5105114;28;20096;-54
2022/08/18 09:44:11;;;;;;;;;;;26.90;76.00;;;;;;5104808;28;19912;-53
2022/08/18 09:46:40;;;;;;;;;;;26.90;75.90;;;;;;5105098;28;19984;-53
2022/08/18 09:49:35;;;;;;;;;;;26.90;75.90;;;;;;5104713;28;19904;-56
2022/08/18 09:52:21;;;;;;;;;;;26.90;75.80;;;;;;5050384;28;20281;-56
2022/08/18 09:54:51;;;;;;;;;;;26.90;75.60;;;;;;5104706;28;19979;-54
2022/08/18 09:57:23;;;;;;;;;;;26.90;75.80;;;;;;5104646;28;19979;-54
2022/08/18 09:59:50;;;;;;;;;;;26.80;76.10;;;;;;5104763;28;20223;-53
2022/08/18 10:02:28;;;;;;;;;;;26.80;76.30;;;;;;5104326;28;19908;-52
2022/08/18 10:05:13;;;;;;;;;;;26.80;76.40;;;;;;5104845;28;19908;-53
2022/08/18 10:07:41;;;;;;;;;;;26.80;76.80;;;;;;5104644;28;19912;-57
2022/08/18 10:10:14;;;;;;;;;;;26.80;76.70;;;;;;5104538;28;20282;-54
2022/08/18 10:12:40;;;;;;;;;;;26.70;76.90;;;;;;5104330;28;19908;-54
2022/08/18 10:15:09;;;;;;;;;;;26.70;77.30;;;;;;5104679;28;19908;-58
2022/08/18 10:17:35;;;;;;;;;;;26.70;77.40;;;;;;5107565;28;19908;-58
2022/08/18 10:20:26;;;;;;;;;;;26.70;77.50;;;;;;5108664;28;19916;-57
2022/08/18 10:22:53;;;;;;;;;;;26.70;77.50;;;;;;5108573;28;19960;-56
2022/08/18 10:25:34;;;;;;;;;;;26.70;77.60;;;;;;5108905;28;19912;-59
2022/08/18 10:28:04;;;;;;;;;;;26.70;77.80;;;;;;5108601;28;19935;-57
2022/08/18 10:30:33;;;;;;;;;;;26.70;78.00;;;;;;5108129;28;20200;-53
2022/08/18 10:33:00;;;;;;;;;;;26.70;78.10;;;;;;5108641;28;19904;-57
2022/08/18 10:35:35;;;;;;;;;;;26.70;78.10;;;;;;5108720;28;19912;-56
2022/08/18 10:38:04;;;;;;;;;;;26.60;78.20;;;;;;5108683;28;19935;-56
2022/08/18 10:40:31;;;;;;;;;;;26.60;78.10;;;;;;5108492;28;19976;-54
2022/08/18 10:42:57;;;;;;;;;;;26.60;78.00;;;;;;5108247;28;20099;-57
2022/08/18 10:45:23;;;;;;;;;;;26.60;78.00;;;;;;5108420;28;19912;-56
2022/08/18 10:48:08;;;;;;;;;;;26.50;77.50;;;;;;5108213;28;19932;-60
2022/08/18 10:50:40;;;;;;;;;;;26.50;77.40;;;;;;5108344;28;19919;-57
2022/08/18 10:53:26;;;;;;;;;;;26.50;77.00;;;;;;5108367;28;19945;-55
2022/08/18 10:56:31;;;;;;;;;;;26.50;76.50;;;;;;5108184;28;19912;-55
2022/08/18 10:59:09;;;;;;;;;;;26.50;76.40;;;;;;5045428;28;19912;-57
2022/08/18 11:01:47;;;;;;;;;;;26.50;76.30;;;;;;5044971;28;19920;-55
2022/08/18 11:04:47;;;;;;;;;;;26.50;76.00;;;;;;5085564;28;19965;-55
2022/08/18 11:07:18;;;;;;;;;;;26.50;75.90;;;;;;5107729;28;20108;-53
2022/08/18 11:09:46;;;;;;;;;;;26.50;75.60;;;;;;5107837;28;19915;-55
2022/08/18 11:12:13;;;;;;;;;;;26.50;75.70;;;;;;5106217;28;19981;-57
2022/08/18 11:14:58;;;;;;;;;;;26.50;75.70;;;;;;5107449;28;19912;-58
2022/08/18 11:17:33;;;;;;;;;;;26.50;75.90;;;;;;5107689;28;19912;-54
2022/08/18 11:20:00;;;;;;;;;;;26.50;75.90;;;;;;5107469;28;19923;-48
2022/08/18 11:22:28;;;;;;;;;;;26.60;74.70;;;;;;5106242;28;20165;-47
2022/08/18 11:24:55;;;;;;;;;;;26.60;74.30;;;;;;5106653;28;19912;-47
2022/08/18 11:27:24;;;;;;;;;;;26.80;73.80;;;;;;5107019;28;19971;-48
2022/08/18 11:29:50;;;;;;;;;;;27.00;72.80;;;;;;5106975;28;19917;-55
2022/08/18 11:32:26;;;;;;;;;;;27.20;72.90;;;;;;5107253;28;19908;-57
2022/08/18 11:34:59;;;;;;;;;;;27.50;72.20;;;;;;5107519;28;19912;-54
2022/08/18 11:37:26;;;;;;;;;;;27.60;71.70;;;;;;5107197;28;19946;-55
2022/08/18 11:39:55;;;;;;;;;;;27.60;71.70;;;;;;5107288;28;19940;-58
2022/08/18 11:42:33;;;;;;;;;;;27.90;71.20;;;;;;5105400;28;19908;-53
2022/08/18 11:45:03;;;;;;;;;;;28.10;70.00;;;;;;5105550;28;20082;-54
2022/08/18 11:47:29;;;;;;;;;;;28.40;69.50;;;;;;5104142;28;20272;-55
2022/08/18 11:49:58;;;;;;;;;;;28.60;69.30;;;;;;5105493;28;19919;-52
2022/08/18 11:52:28;;;;;;;;;;;28.60;69.40;;;;;;5104047;28;20294;-51
2022/08/18 11:55:05;;;;;;;;;;;28.30;69.00;;;;;;5105175;28;20218;-53
2022/08/18 11:57:40;;;;;;;;;;;28.10;69.30;;;;;;5105636;28;19908;-53
2022/08/18 12:00:26;;;;;;;;;;;27.90;70.00;;;;;;5105638;28;20096;-54
2022/08/18 12:03:20;;;;;;;;;;;27.80;70.40;;;;;;5106662;28;19908;-56
2022/08/18 12:05:52;;;;;;;;;;;27.70;70.40;;;;;;5107081;28;19912;-54
2022/08/18 12:08:25;;;;;;;;;;;27.60;70.70;;;;;;5106488;28;19915;-55
2022/08/18 12:11:01;;;;;;;;;;;27.60;70.70;;;;;;5106505;28;19920;-54
2022/08/18 12:13:27;;;;;;;;;;;27.50;70.70;;;;;;5106759;28;19908;-55
2022/08/18 12:16:10;;;;;;;;;;;27.50;71.00;;;;;;5106261;28;19916;-56
2022/08/18 12:18:36;;;;;;;;;;;27.50;71.10;;;;;;5106371;28;19908;-54
2022/08/18 12:21:02;;;;;;;;;;;27.50;71.00;;;;;;5106706;28;19922;-53
2022/08/18 12:23:30;;;;;;;;;;;27.50;71.00;;;;;;5106401;28;20184;-52
2022/08/18 12:25:56;;;;;;;;;;;27.50;71.00;;;;;;5106754;28;20180;-55
2022/08/18 12:28:25;;;;;;;;;;;27.50;71.10;;;;;;5106021;28;19952;-53
2022/08/18 12:30:52;;;;;;;;;;;27.50;71.30;;;;;;5106694;28;19945;-53
2022/08/18 12:33:18;;;;;;;;;;;27.50;71.20;;;;;;5106201;28;19915;-60
2022/08/18 12:35:45;;;;;;;;;;;27.50;71.50;;;;;;5105360;28;19919;-52
2022/08/18 12:38:12;;;;;;;;;;;27.50;71.20;;;;;;5106213;28;19908;-52
2022/08/18 12:40:39;;;;;;;;;;;27.50;71.50;;;;;;5105558;28;20227;-55
2022/08/18 12:43:05;;;;;;;;;;;27.50;71.30;;;;;;5106176;28;19950;-53
2022/08/18 12:45:32;;;;;;;;;;;27.60;71.40;;;;;;5106201;28;20022;-56
2022/08/18 12:48:01;;;;;;;;;;;27.60;71.50;;;;;;5104182;28;19908;-56
2022/08/18 12:50:27;;;;;;;;;;;27.60;71.60;;;;;;5105834;28;19954;-56
2022/08/18 12:52:53;;;;;;;;;;;27.60;71.80;;;;;;5105941;28;19904;-54
2022/08/18 12:55:19;;;;;;;;;;;27.60;71.60;;;;;;5106085;28;19913;-53
2022/08/18 12:57:45;;;;;;;;;;;27.70;71.80;;;;;;5105681;28;19966;-55
2022/08/18 13:00:12;;;;;;;;;;;27.60;71.50;;;;;;5105328;28;20112;-54
2022/08/18 13:02:38;;;;;;;;;;;27.70;71.60;;;;;;5105636;28;19915;-55
2022/08/18 13:05:05;;;;;;;;;;;27.70;71.70;;;;;;5105958;28;19947;-53
2022/08/18 13:07:31;;;;;;;;;;;27.70;71.80;;;;;;5105298;28;19912;-56
2022/08/18 13:09:57;;;;;;;;;;;27.70;71.40;;;;;;5105615;28;20087;-53
2022/08/18 13:12:24;;;;;;;;;;;27.70;71.60;;;;;;5104535;28;19912;-53
2022/08/18 13:14:53;;;;;;;;;;;27.80;71.40;;;;;;5105758;28;19912;-53
2022/08/18 13:17:19;;;;;;;;;;;27.80;71.50;;;;;;5105222;28;19912;-54
2022/08/18 13:19:46;;;;;;;;;;;27.80;71.50;;;;;;5105287;28;20495;-55
2022/08/18 13:22:12;;;;;;;;;;;27.80;71.50;;;;;;5104097;28;20100;-54
2022/08/18 13:24:38;;;;;;;;;;;27.80;71.00;;;;;;5104818;28;19912;-54
2022/08/18 13:27:05;;;;;;;;;;;27.80;70.70;;;;;;5096096;28;19908;-52
2022/08/18 13:29:31;;;;;;;;;;;27.80;70.80;;;;;;5098986;28;19912;-55
2022/08/18 13:31:58;;;;;;;;;;;27.90;71.20;;;;;;5097720;28;19915;-54
2022/08/18 13:34:27;;;;;;;;;;;27.90;71.30;;;;;;5098728;28;19994;-53
2022/08/18 13:36:54;;;;;;;;;;;27.80;71.20;;;;;;5086159;28;19908;-55
2022/08/18 13:39:21;;;;;;;;;;;27.90;71.30;;;;;;5089327;28;19912;-54
2022/08/18 13:41:50;;;;;;;;;;;27.90;71.10;;;;;;5104749;28;19912;-57
2022/08/18 13:44:17;;;;;;;;;;;27.90;71.30;;;;;;5097874;28;19940;-56
2022/08/18 13:46:44;;;;;;;;;;;27.90;71.50;;;;;;5088186;28;19993;-52
2022/08/18 13:49:11;;;;;;;;;;;28.00;71.70;;;;;;5084441;28;19947;-54
2022/08/18 13:51:39;;;;;;;;;;;28.00;71.00;;;;;;5083997;28;19912;-52
2022/08/18 13:54:05;;;;;;;;;;;28.00;71.20;;;;;;5084412;28;19916;-52
2022/08/18 13:56:31;;;;;;;;;;;28.00;71.30;;;;;;5084477;28;20196;-56
2022/08/18 13:58:57;;;;;;;;;;;28.00;71.40;;;;;;5084219;28;19908;-56
2022/08/18 14:01:23;;;;;;;;;;;28.00;71.40;;;;;;5084214;28;20112;-54
2022/08/18 14:03:50;;;;;;;;;;;28.10;71.60;;;;;;5084391;28;19909;-53
2022/08/18 14:06:19;;;;;;;;;;;28.00;71.70;;;;;;5099874;28;20100;-50
2022/08/18 14:08:45;;;;;;;;;;;28.10;71.80;;;;;;5084150;28;20249;-51
2022/08/18 14:11:11;;;;;;;;;;;28.10;72.00;;;;;;5084290;28;20205;-53
2022/08/18 14:13:40;;;;;;;;;;;28.10;72.00;;;;;;5099732;28;20306;-55
2022/08/18 14:16:07;;;;;;;;;;;28.10;71.90;;;;;;5104993;28;19915;-56
2022/08/18 14:18:33;;;;;;;;;;;28.20;72.10;;;;;;5103459;28;19981;-53
2022/08/18 14:26:49;;;;;;;;;;;28.30;73.30;;;;;;5102599;28;19966;-54
2022/08/18 14:29:16;;;;;;;;;;;28.40;73.40;;;;;;5094729;28;19909;-54
2022/08/18 14:31:42;;;;;;;;;;;28.40;73.60;;;;;;5102919;28;19908;-52
2022/08/18 14:34:08;;;;;;;;;;;28.40;74.70;;;;;;5103949;28;19908;-55
2022/08/18 14:36:35;;;;;;;;;;;28.50;74.80;;;;;;5104405;28;19908;-52
2022/08/18 14:39:01;;;;;;;;;;;28.50;75.60;;;;;;5104175;28;19908;-57
2022/08/18 14:41:28;;;;;;;;;;;28.50;75.30;;;;;;5104303;28;19916;-52
2022/08/18 14:43:55;;;;;;;;;;;28.50;75.60;;;;;;5103732;28;19979;-52
2022/08/18 14:46:21;;;;;;;;;;;28.60;76.50;;;;;;5104097;28;19987;-51
2022/08/18 14:48:48;;;;;;;;;;;28.60;77.90;;;;;;5104105;28;19911;-57
2022/08/18 14:51:14;;;;;;;;;;;28.70;77.80;;;;;;5104068;28;19912;-54
2022/08/18 14:53:40;;;;;;;;;;;28.70;78.20;;;;;;5103991;28;19950;-53
2022/08/18 14:56:06;;;;;;;;;;;28.70;78.20;;;;;;5104585;28;19908;-53
2022/08/18 14:58:33;;;;;;;;;;;28.70;78.40;;;;;;5101428;28;19912;-53
2022/08/18 15:01:00;;;;;;;;;;;28.70;79.00;;;;;;5103618;28;19912;-55
2022/08/18 15:03:28;;;;;;;;;;;28.70;79.10;;;;;;5104885;28;19912;-54